Time;durP1;ratioP1;P1;durP2;ratioP2;P2;SDS_P1;SDS_P2;PMS_P1;PMS_P2;Temp;Humidity;BMP_temperature;BMP_pressure;BME280_temperature;BME280_humidity;BME280_pressure;Samples;Min_cycle;Max_cycle;Signal;HPM_P1;HPM_P2
2022/11/16 00:02:02;;;;;;;;;;;14.60;74.10;;;;;;4957354;28;20267;-80
2022/11/16 00:04:28;;;;;;;;;;;14.60;74.10;;;;;;4957284;29;19918;-80
2022/11/16 00:06:53;;;;;;;;;;;14.60;74.10;;;;;;4941102;29;19982;-80
2022/11/16 00:09:22;;;;;;;;;;;14.60;74.10;;;;;;4941234;29;19918;-80
2022/11/16 00:11:48;;;;;;;;;;;14.60;74.10;;;;;;4958056;29;20370;-81
2022/11/16 00:14:14;;;;;;;;;;;14.60;74.20;;;;;;4958073;28;19914;-80
2022/11/16 00:16:40;;;;;;;;;;;14.60;74.20;;;;;;4941299;28;19934;-81
2022/11/16 00:19:06;;;;;;;;;;;14.60;74.20;;;;;;4941277;29;19918;-80
2022/11/16 00:21:31;;;;;;;;;;;14.60;74.20;;;;;;4956753;29;19915;-80
2022/11/16 00:23:57;;;;;;;;;;;14.60;74.20;;;;;;4941320;29;20021;-80
2022/11/16 00:26:23;;;;;;;;;;;14.60;74.20;;;;;;4956780;29;19922;-78
2022/11/16 00:28:51;;;;;;;;;;;14.60;74.20;;;;;;4956964;28;19922;-79
2022/11/16 00:31:17;;;;;;;;;;;14.70;74.20;;;;;;4957828;28;19949;-80
2022/11/16 00:33:43;;;;;;;;;;;14.70;74.20;;;;;;4956622;28;19910;-81
2022/11/16 00:36:09;;;;;;;;;;;14.60;74.20;;;;;;4955873;28;19915;-80
2022/11/16 00:38:35;;;;;;;;;;;14.60;74.20;;;;;;4956780;28;19910;-79
2022/11/16 00:41:01;;;;;;;;;;;14.70;74.20;;;;;;4956988;28;19926;-81
2022/11/16 00:43:26;;;;;;;;;;;14.60;74.20;;;;;;4925043;29;19986;-81
2022/11/16 00:45:52;;;;;;;;;;;14.70;74.20;;;;;;4956706;28;19961;-80
2022/11/16 00:48:18;;;;;;;;;;;14.60;74.20;;;;;;4956511;28;20411;-77
2022/11/16 00:50:44;;;;;;;;;;;14.70;74.20;;;;;;4956463;28;19928;-80
2022/11/16 00:53:11;;;;;;;;;;;14.60;74.20;;;;;;4956663;28;19911;-80
2022/11/16 00:55:37;;;;;;;;;;;14.60;74.20;;;;;;4956480;29;19920;-78
2022/11/16 00:58:02;;;;;;;;;;;14.60;74.20;;;;;;4956341;28;20331;-81
2022/11/16 01:00:28;;;;;;;;;;;14.70;74.30;;;;;;4940355;29;20402;-80
2022/11/16 01:02:53;;;;;;;;;;;14.70;74.20;;;;;;4956211;29;19914;-79
2022/11/16 01:05:20;;;;;;;;;;;14.70;74.20;;;;;;4956919;28;19922;-80
2022/11/16 01:07:46;;;;;;;;;;;14.70;74.30;;;;;;4955849;28;19922;-80
2022/11/16 01:10:13;;;;;;;;;;;14.70;74.20;;;;;;4955986;29;19923;-82
2022/11/16 01:12:41;;;;;;;;;;;14.70;74.30;;;;;;4956261;28;20342;-83
2022/11/16 01:15:10;;;;;;;;;;;14.70;74.20;;;;;;4955733;29;19925;-80
2022/11/16 01:17:39;;;;;;;;;;;14.60;74.20;;;;;;4955843;28;19911;-81
2022/11/16 01:20:06;;;;;;;;;;;14.70;74.20;;;;;;4955390;29;19915;-80
2022/11/16 01:22:35;;;;;;;;;;;14.70;74.20;;;;;;4955752;28;20379;-82
2022/11/16 01:25:02;;;;;;;;;;;14.70;74.30;;;;;;4955454;28;20392;-80
2022/11/16 01:27:27;;;;;;;;;;;14.60;74.20;;;;;;4955552;28;19966;-80
2022/11/16 01:29:55;;;;;;;;;;;14.70;74.20;;;;;;4955186;29;19923;-80
2022/11/16 01:32:21;;;;;;;;;;;14.70;74.20;;;;;;4955185;28;19914;-82
2022/11/16 01:34:47;;;;;;;;;;;14.70;74.90;;;;;;4955929;29;19925;-82
2022/11/16 01:37:23;;;;;;;;;;;14.70;74.30;;;;;;4955841;28;20321;-80
2022/11/16 01:39:49;;;;;;;;;;;14.70;74.20;;;;;;4955444;28;19919;-80
2022/11/16 01:42:28;;;;;;;;;;;14.70;74.20;;;;;;4955298;28;19914;-80
2022/11/16 01:44:59;;;;;;;;;;;14.70;74.30;;;;;;4955518;28;20284;-81
2022/11/16 01:47:25;;;;;;;;;;;14.70;74.30;;;;;;4955180;28;19957;-78
2022/11/16 01:50:01;;;;;;;;;;;14.70;74.20;;;;;;4955357;28;19919;-80
2022/11/16 01:52:32;;;;;;;;;;;14.70;74.30;;;;;;4956118;28;19958;-77
2022/11/16 01:54:59;;;;;;;;;;;14.70;74.30;;;;;;4955130;28;19961;-80
2022/11/16 01:57:30;;;;;;;;;;;14.70;74.30;;;;;;4955241;28;19910;-81
2022/11/16 02:00:05;;;;;;;;;;;14.70;74.30;;;;;;4955532;28;19993;-81
2022/11/16 02:02:39;;;;;;;;;;;14.70;74.30;;;;;;4956208;28;20371;-80
2022/11/16 02:05:08;;;;;;;;;;;14.70;74.30;;;;;;4955386;28;20476;-80
2022/11/16 02:10:57;;;;;;;;;;;14.70;74.30;;;;;;4954655;28;19915;-80
2022/11/16 02:13:25;;;;;;;;;;;14.70;74.30;;;;;;4955723;29;19965;-79
2022/11/16 02:15:56;;;;;;;;;;;14.70;74.30;;;;;;4955100;28;19946;-80
2022/11/16 02:18:35;;;;;;;;;;;14.70;74.30;;;;;;4955501;29;20009;-77
2022/11/16 02:21:07;;;;;;;;;;;14.70;74.30;;;;;;4955190;29;19914;-82
2022/11/16 02:23:39;;;;;;;;;;;14.70;74.30;;;;;;4954809;29;20490;-81
2022/11/16 02:26:15;;;;;;;;;;;14.70;74.30;;;;;;4954786;29;19918;-81
2022/11/16 02:29:00;;;;;;;;;;;14.70;74.30;;;;;;4956127;28;19922;-77
2022/11/16 02:31:35;;;;;;;;;;;14.70;74.30;;;;;;4954889;29;19958;-80
2022/11/16 02:34:03;;;;;;;;;;;14.70;74.30;;;;;;4954797;28;20001;-79
2022/11/16 02:36:29;;;;;;;;;;;14.70;74.30;;;;;;4938573;29;19918;-80
2022/11/16 02:38:58;;;;;;;;;;;14.70;74.30;;;;;;4954819;28;20275;-82
2022/11/16 02:41:25;;;;;;;;;;;14.70;74.30;;;;;;4955668;28;19911;-81
2022/11/16 02:43:58;;;;;;;;;;;14.70;74.30;;;;;;4939394;29;19933;-87
2022/11/16 02:46:29;;;;;;;;;;;14.70;74.30;;;;;;4955878;29;19985;-88
2022/11/16 02:48:58;;;;;;;;;;;14.70;74.30;;;;;;4939613;29;19919;-87
2022/11/16 02:51:26;;;;;;;;;;;14.70;74.30;;;;;;4939522;29;19911;-88
2022/11/16 02:54:00;;;;;;;;;;;14.70;74.40;;;;;;4955804;28;20372;-87
2022/11/16 02:56:27;;;;;;;;;;;14.70;74.30;;;;;;4955143;28;19921;-89
2022/11/16 02:58:53;;;;;;;;;;;14.70;74.30;;;;;;4941887;29;19911;-87
2022/11/16 03:01:24;;;;;;;;;;;14.70;74.30;;;;;;4959311;29;19965;-86
2022/11/16 03:03:52;;;;;;;;;;;14.70;74.30;;;;;;4960052;28;19922;-87
2022/11/16 03:06:26;;;;;;;;;;;14.70;75.00;;;;;;4942612;29;23170;-87
2022/11/16 03:09:13;;;;;;;;;;;14.70;74.30;;;;;;4943194;29;19929;-88
2022/11/16 03:12:00;;;;;;;;;;;14.70;74.30;;;;;;4958773;28;20021;-86
2022/11/16 03:14:37;;;;;;;;;;;14.70;74.30;;;;;;4961133;28;20012;-87
2022/11/16 03:17:04;;;;;;;;;;;14.70;74.30;;;;;;4948842;29;19930;-87
2022/11/16 03:19:56;;;;;;;;;;;14.70;74.30;;;;;;4962426;28;19935;-87
2022/11/16 03:22:30;;;;;;;;;;;14.70;74.30;;;;;;4952247;29;19914;-87
2022/11/16 03:24:56;;;;;;;;;;;14.70;74.40;;;;;;4960021;29;19922;-87
2022/11/16 03:27:41;;;;;;;;;;;14.70;74.30;;;;;;4960439;28;19929;-87
2022/11/16 03:30:09;;;;;;;;;;;14.70;74.30;;;;;;4959099;28;19915;-87
2022/11/16 03:32:47;;;;;;;;;;;14.70;74.30;;;;;;4959724;29;20016;-87
2022/11/16 03:35:31;;;;;;;;;;;14.70;74.40;;;;;;4958847;29;19914;-87
2022/11/16 03:37:58;;;;;;;;;;;14.70;74.30;;;;;;4959464;29;20336;-86
2022/11/16 03:40:25;;;;;;;;;;;14.70;74.30;;;;;;4958827;28;19950;-85
2022/11/16 03:42:51;;;;;;;;;;;14.70;74.40;;;;;;4958782;28;19924;-87
2022/11/16 03:45:18;;;;;;;;;;;14.70;74.40;;;;;;4942739;29;19953;-87
2022/11/16 03:47:44;;;;;;;;;;;14.70;74.40;;;;;;4958268;28;19915;-88
2022/11/16 03:50:10;;;;;;;;;;;14.70;74.40;;;;;;4958720;28;20324;-88
2022/11/16 03:52:37;;;;;;;;;;;14.70;74.30;;;;;;4958866;28;19914;-87
2022/11/16 03:55:03;;;;;;;;;;;14.70;74.30;;;;;;4959006;28;19915;-87
2022/11/16 03:57:29;;;;;;;;;;;14.70;74.30;;;;;;4942768;29;19918;-87
2022/11/16 03:59:57;;;;;;;;;;;14.70;74.30;;;;;;4958484;28;19911;-87
2022/11/16 04:02:23;;;;;;;;;;;14.70;74.30;;;;;;4942746;29;20062;-86
2022/11/16 04:24:15;;;;;;;;;;;14.70;74.40;;;;;;4958104;29;19914;-87
2022/11/16 04:29:30;;;;;;;;;;;14.70;74.40;;;;;;4957966;29;20013;-88
2022/11/16 04:40:12;;;;;;;;;;;14.70;74.30;;;;;;4958547;29;19919;-87
2022/11/16 04:42:38;;;;;;;;;;;14.70;74.30;;;;;;4957385;28;19911;-87
2022/11/16 04:47:51;;;;;;;;;;;14.70;74.30;;;;;;4957771;29;19945;-88
2022/11/16 04:50:18;;;;;;;;;;;14.70;74.30;;;;;;4958256;28;20005;-89
2022/11/16 04:52:44;;;;;;;;;;;14.70;75.00;;;;;;4941612;29;20397;-88
2022/11/16 04:55:12;;;;;;;;;;;14.70;74.30;;;;;;4926556;29;19957;-88
2022/11/16 04:57:38;;;;;;;;;;;14.70;74.30;;;;;;4957595;28;19918;-87
2022/11/16 05:00:04;;;;;;;;;;;14.70;74.30;;;;;;4925565;29;19915;-87
2022/11/16 05:02:32;;;;;;;;;;;14.70;74.30;;;;;;4957210;28;19993;-88
2022/11/16 05:04:58;;;;;;;;;;;14.70;74.30;;;;;;4941041;28;19942;-87
2022/11/16 05:07:25;;;;;;;;;;;14.70;74.30;;;;;;4941244;29;19922;-88
2022/11/16 05:09:55;;;;;;;;;;;14.70;74.30;;;;;;4941981;29;20363;-87
2022/11/16 05:12:25;;;;;;;;;;;14.70;74.30;;;;;;4941891;29;19919;-88
2022/11/16 05:14:54;;;;;;;;;;;14.70;74.30;;;;;;4957009;28;19970;-85
2022/11/16 05:17:23;;;;;;;;;;;14.70;74.30;;;;;;4957201;28;19954;-87
2022/11/16 05:22:40;;;;;;;;;;;14.70;74.30;;;;;;4944467;29;19918;-85
2022/11/16 05:25:06;;;;;;;;;;;14.70;74.20;;;;;;4956877;28;19921;-88
2022/11/16 05:27:33;;;;;;;;;;;14.70;74.20;;;;;;4956750;28;20028;-87
2022/11/16 05:29:59;;;;;;;;;;;14.70;74.20;;;;;;4957266;29;19914;-89
2022/11/16 05:32:26;;;;;;;;;;;14.70;74.20;;;;;;4957172;28;19964;-88
2022/11/16 05:34:55;;;;;;;;;;;14.70;74.30;;;;;;4957067;28;19919;-86
2022/11/16 05:37:25;;;;;;;;;;;14.70;74.30;;;;;;4941258;28;19915;-88
2022/11/16 05:39:52;;;;;;;;;;;14.70;74.20;;;;;;4941178;29;19918;-91
2022/11/16 05:42:18;;;;;;;;;;;14.70;74.30;;;;;;4956383;28;19911;-87
2022/11/16 05:44:44;;;;;;;;;;;14.70;74.20;;;;;;4956749;28;19925;-89
2022/11/16 05:47:10;;;;;;;;;;;14.70;74.30;;;;;;4956294;28;19918;-88
2022/11/16 05:49:36;;;;;;;;;;;14.70;74.20;;;;;;4955975;28;19914;-87
2022/11/16 05:52:02;;;;;;;;;;;14.70;74.30;;;;;;4955670;28;20348;-86
2022/11/16 05:54:30;;;;;;;;;;;14.70;74.30;;;;;;4956091;28;19914;-86
2022/11/16 05:56:56;;;;;;;;;;;14.70;74.20;;;;;;4939682;29;19954;-87
2022/11/16 05:59:23;;;;;;;;;;;14.70;74.30;;;;;;4956948;28;19920;-88
2022/11/16 06:01:52;;;;;;;;;;;14.70;74.20;;;;;;4955417;28;19923;-85
2022/11/16 06:04:18;;;;;;;;;;;14.70;74.20;;;;;;4954977;28;19938;-84
2022/11/16 06:06:43;;;;;;;;;;;14.70;74.20;;;;;;4955562;28;19918;-85
2022/11/16 06:09:11;;;;;;;;;;;14.70;74.20;;;;;;4955141;28;20011;-87
2022/11/16 06:11:37;;;;;;;;;;;14.70;74.20;;;;;;4955616;28;20009;-85
2022/11/16 06:14:04;;;;;;;;;;;14.70;74.20;;;;;;4955840;29;19925;-88
2022/11/16 06:16:33;;;;;;;;;;;14.70;74.20;;;;;;4956187;28;19914;-87
2022/11/16 06:19:02;;;;;;;;;;;14.70;74.20;;;;;;4955984;28;19915;-89
2022/11/16 06:21:27;;;;;;;;;;;14.70;74.20;;;;;;4958810;29;19922;-86
2022/11/16 06:23:53;;;;;;;;;;;14.70;74.20;;;;;;4944310;29;19906;-89
2022/11/16 06:26:19;;;;;;;;;;;14.70;74.20;;;;;;4960760;29;19933;-90
2022/11/16 06:28:46;;;;;;;;;;;14.70;74.20;;;;;;4958879;28;19918;-88
2022/11/16 06:31:12;;;;;;;;;;;14.70;74.20;;;;;;4958080;29;19924;-88
2022/11/16 06:33:40;;;;;;;;;;;14.70;74.30;;;;;;4925923;29;20364;-89
2022/11/16 06:36:13;;;;;;;;;;;14.70;74.20;;;;;;4956468;28;19922;-87
2022/11/16 06:38:39;;;;;;;;;;;14.70;74.20;;;;;;4955879;28;19973;-91
2022/11/16 06:41:06;;;;;;;;;;;14.70;74.20;;;;;;4955975;28;19915;-90
2022/11/16 06:43:38;;;;;;;;;;;14.60;74.20;;;;;;4955656;28;19915;-91
2022/11/16 06:46:04;;;;;;;;;;;14.70;74.20;;;;;;4939825;29;20263;-89
2022/11/16 06:48:32;;;;;;;;;;;14.60;74.20;;;;;;4939751;28;19915;-90
2022/11/16 06:50:58;;;;;;;;;;;14.70;74.20;;;;;;4955723;28;19915;-89
2022/11/16 06:53:24;;;;;;;;;;;14.60;74.20;;;;;;4939900;28;19918;-89
2022/11/16 06:55:49;;;;;;;;;;;14.60;74.20;;;;;;4939876;29;19953;-89
2022/11/16 06:58:16;;;;;;;;;;;14.60;74.20;;;;;;4943139;29;19925;-89
2022/11/16 07:00:43;;;;;;;;;;;14.60;74.20;;;;;;4945686;29;20351;-88
2022/11/16 07:03:10;;;;;;;;;;;14.60;74.20;;;;;;4941835;28;19911;-88
2022/11/16 07:05:38;;;;;;;;;;;14.60;74.20;;;;;;4955568;28;19965;-88
2022/11/16 07:08:04;;;;;;;;;;;14.50;74.20;;;;;;4939537;29;19953;-89
2022/11/16 07:10:30;;;;;;;;;;;14.60;74.20;;;;;;4956116;28;19930;-90
2022/11/16 07:12:56;;;;;;;;;;;14.50;74.20;;;;;;4924534;29;19919;-89
2022/11/16 07:15:22;;;;;;;;;;;14.50;74.20;;;;;;4940167;29;20013;-88
2022/11/16 07:17:48;;;;;;;;;;;14.50;74.10;;;;;;4955256;29;20013;-89
2022/11/16 07:20:14;;;;;;;;;;;14.50;74.20;;;;;;4939176;29;20303;-88
2022/11/16 07:22:40;;;;;;;;;;;14.50;74.20;;;;;;4939078;29;20336;-88
2022/11/16 07:25:10;;;;;;;;;;;14.40;74.10;;;;;;4955189;29;19918;-88
2022/11/16 07:27:35;;;;;;;;;;;14.50;74.20;;;;;;4923364;29;20279;-88
2022/11/16 07:30:03;;;;;;;;;;;14.50;74.20;;;;;;4939525;29;19910;-88
2022/11/16 07:32:55;;;;;;;;;;;14.50;74.20;;;;;;4958248;28;19918;-89
2022/11/16 07:35:30;;;;;;;;;;;14.40;74.20;;;;;;4940609;29;19910;-88
2022/11/16 07:37:56;;;;;;;;;;;14.40;74.10;;;;;;4939196;29;19926;-88
2022/11/16 07:40:22;;;;;;;;;;;14.40;74.10;;;;;;4955252;28;20005;-89
2022/11/16 07:42:48;;;;;;;;;;;14.40;74.10;;;;;;4955054;29;19921;-88
2022/11/16 07:45:32;;;;;;;;;;;14.40;74.10;;;;;;4958364;28;20001;-89
2022/11/16 07:48:04;;;;;;;;;;;14.30;74.10;;;;;;4959087;29;19914;-88
2022/11/16 07:50:48;;;;;;;;;;;14.30;74.10;;;;;;4958799;29;19921;-90
2022/11/16 07:53:15;;;;;;;;;;;14.30;74.10;;;;;;4942976;29;19965;-89
2022/11/16 07:55:41;;;;;;;;;;;14.30;74.10;;;;;;4958324;28;19911;-89
2022/11/16 07:58:07;;;;;;;;;;;14.30;74.10;;;;;;4958528;28;19918;-88
2022/11/16 08:00:33;;;;;;;;;;;14.30;74.10;;;;;;4958668;29;20303;-88
2022/11/16 08:03:08;;;;;;;;;;;14.20;74.10;;;;;;4944158;28;19915;-89
2022/11/16 08:05:34;;;;;;;;;;;14.20;74.10;;;;;;4958324;28;19914;-88
2022/11/16 08:07:59;;;;;;;;;;;14.20;74.10;;;;;;4958455;28;19911;-88
2022/11/16 08:10:28;;;;;;;;;;;14.20;74.10;;;;;;4942403;29;19922;-88
2022/11/16 08:12:54;;;;;;;;;;;14.20;74.10;;;;;;4958379;28;19914;-88
2022/11/16 08:15:24;;;;;;;;;;;14.20;74.10;;;;;;4957723;28;20037;-89
2022/11/16 08:17:50;;;;;;;;;;;14.10;74.00;;;;;;4942810;29;19925;-88
2022/11/16 08:20:16;;;;;;;;;;;14.20;74.10;;;;;;4959033;28;19910;-88
2022/11/16 08:22:42;;;;;;;;;;;14.10;74.00;;;;;;4958147;28;20415;-88
2022/11/16 08:25:08;;;;;;;;;;;14.10;74.00;;;;;;4958141;28;19914;-88
2022/11/16 08:27:35;;;;;;;;;;;14.10;74.00;;;;;;4957813;29;19923;-89
2022/11/16 08:30:08;;;;;;;;;;;14.10;74.10;;;;;;4958191;28;19954;-89
2022/11/16 08:32:34;;;;;;;;;;;14.10;74.00;;;;;;4958014;28;19918;-88
2022/11/16 08:35:00;;;;;;;;;;;14.10;74.10;;;;;;4925894;29;20013;-88
2022/11/16 08:37:26;;;;;;;;;;;14.10;74.00;;;;;;4957389;28;19973;-88
2022/11/16 08:39:53;;;;;;;;;;;14.10;74.10;;;;;;4957801;28;19961;-88
2022/11/16 08:42:19;;;;;;;;;;;14.00;74.00;;;;;;4957905;28;19937;-89
2022/11/16 08:44:47;;;;;;;;;;;14.00;74.10;;;;;;4941998;28;19911;-89
2022/11/16 08:47:15;;;;;;;;;;;14.00;74.10;;;;;;4941882;28;20071;-88
2022/11/16 08:49:46;;;;;;;;;;;14.00;74.00;;;;;;4957815;28;19917;-88
2022/11/16 08:52:12;;;;;;;;;;;14.00;74.10;;;;;;4957606;28;19953;-88
2022/11/16 08:54:37;;;;;;;;;;;14.00;74.10;;;;;;4957462;28;19934;-89
2022/11/16 08:57:04;;;;;;;;;;;14.00;74.10;;;;;;4956762;28;20021;-88
2022/11/16 08:59:33;;;;;;;;;;;14.00;74.10;;;;;;4957314;29;20426;-88
2022/11/16 09:02:05;;;;;;;;;;;13.90;74.00;;;;;;4957516;28;19915;-88
2022/11/16 09:04:30;;;;;;;;;;;13.90;74.10;;;;;;4957248;29;19915;-88
2022/11/16 09:06:56;;;;;;;;;;;13.90;74.10;;;;;;4958096;28;19926;-88
2022/11/16 09:09:22;;;;;;;;;;;13.90;74.20;;;;;;4956874;28;20306;-89
2022/11/16 09:11:50;;;;;;;;;;;13.90;74.10;;;;;;4941617;28;19914;-88
2022/11/16 09:14:16;;;;;;;;;;;13.90;74.20;;;;;;4957063;28;19925;-88
2022/11/16 09:16:42;;;;;;;;;;;13.90;74.10;;;;;;4956614;29;19915;-87
2022/11/16 09:19:07;;;;;;;;;;;13.90;74.20;;;;;;4956856;29;19914;-87
2022/11/16 09:21:35;;;;;;;;;;;13.90;74.10;;;;;;4957854;28;19914;-87
2022/11/16 09:24:01;;;;;;;;;;;13.90;74.20;;;;;;4957439;29;20033;-87
2022/11/16 09:26:27;;;;;;;;;;;13.90;74.80;;;;;;4958243;28;19977;-87
2022/11/16 09:28:59;;;;;;;;;;;13.90;74.10;;;;;;4942097;29;19929;-88
2022/11/16 09:31:26;;;;;;;;;;;13.90;74.20;;;;;;4957637;29;19919;-87
2022/11/16 09:33:52;;;;;;;;;;;13.90;74.10;;;;;;4957497;29;19969;-88
2022/11/16 09:36:19;;;;;;;;;;;13.90;74.20;;;;;;4946856;29;20017;-88
2022/11/16 09:38:45;;;;;;;;;;;13.90;74.20;;;;;;4931187;29;19965;-87
2022/11/16 09:41:13;;;;;;;;;;;13.90;74.20;;;;;;4958097;29;19914;-88
2022/11/16 09:43:39;;;;;;;;;;;13.90;74.20;;;;;;4956951;29;19917;-87
2022/11/16 09:46:11;;;;;;;;;;;13.90;74.20;;;;;;4957395;28;19922;-87
2022/11/16 09:48:37;;;;;;;;;;;13.90;74.20;;;;;;4957195;29;20008;-87
2022/11/16 09:51:07;;;;;;;;;;;13.90;74.30;;;;;;4940534;29;20033;-88
2022/11/16 09:53:36;;;;;;;;;;;13.90;74.30;;;;;;4956388;28;20409;-87
2022/11/16 09:56:03;;;;;;;;;;;13.90;74.30;;;;;;4956177;28;20314;-87
2022/11/16 09:58:31;;;;;;;;;;;13.90;74.30;;;;;;4956496;28;20356;-88
2022/11/16 10:01:20;;;;;;;;;;;13.90;74.30;;;;;;4940388;29;19974;-88
2022/11/16 10:03:49;;;;;;;;;;;13.90;74.30;;;;;;4961332;29;19940;-88
2022/11/16 10:06:22;;;;;;;;;;;13.90;74.30;;;;;;4957631;29;20386;-87
2022/11/16 10:08:50;;;;;;;;;;;13.90;74.30;;;;;;4955327;28;20359;-85
2022/11/16 10:11:33;;;;;;;;;;;13.90;74.30;;;;;;4955886;28;19921;-88
2022/11/16 10:14:11;;;;;;;;;;;13.90;74.30;;;;;;4955903;29;19964;-88
2022/11/16 10:16:56;;;;;;;;;;;13.90;74.40;;;;;;4939943;29;19914;-88
2022/11/16 10:19:21;;;;;;;;;;;13.90;74.40;;;;;;4956807;28;19920;-88
2022/11/16 10:21:51;;;;;;;;;;;13.90;74.40;;;;;;4956356;28;19938;-88
2022/11/16 10:24:42;;;;;;;;;;;13.90;74.40;;;;;;4956053;29;19921;-90
2022/11/16 10:27:16;;;;;;;;;;;13.90;74.40;;;;;;4939772;29;19966;-89
2022/11/16 10:29:47;;;;;;;;;;;13.90;74.40;;;;;;4955658;29;19918;-88
2022/11/16 10:32:15;;;;;;;;;;;13.90;74.40;;;;;;4956744;28;19910;-89
2022/11/16 10:34:47;;;;;;;;;;;13.90;74.40;;;;;;4957054;28;19911;-88
2022/11/16 10:37:13;;;;;;;;;;;13.90;74.40;;;;;;4955796;29;19919;-88
2022/11/16 10:39:39;;;;;;;;;;;13.90;74.40;;;;;;4939403;29;19914;-88
2022/11/16 10:42:09;;;;;;;;;;;13.90;74.40;;;;;;4955457;29;19921;-87
2022/11/16 10:44:42;;;;;;;;;;;13.90;74.40;;;;;;4939669;29;20268;-89
2022/11/16 10:47:18;;;;;;;;;;;13.90;74.40;;;;;;4957193;28;19945;-89
2022/11/16 10:50:01;;;;;;;;;;;13.90;74.40;;;;;;4939722;29;19919;-88
2022/11/16 10:52:26;;;;;;;;;;;13.90;74.40;;;;;;4955965;29;19915;-89
2022/11/16 10:54:52;;;;;;;;;;;13.90;74.40;;;;;;4955600;28;19915;-89
2022/11/16 10:57:18;;;;;;;;;;;13.90;74.40;;;;;;4956681;28;19915;-89
2022/11/16 10:59:45;;;;;;;;;;;13.90;74.40;;;;;;4939260;29;19922;-89
2022/11/16 11:02:30;;;;;;;;;;;13.90;74.40;;;;;;4955767;28;19914;-89
2022/11/16 11:05:14;;;;;;;;;;;13.90;74.40;;;;;;4955182;28;19925;-88
2022/11/16 11:07:42;;;;;;;;;;;13.90;74.40;;;;;;4955089;29;19922;-86
2022/11/16 11:10:27;;;;;;;;;;;13.90;74.40;;;;;;4955257;29;19923;-87
2022/11/16 11:13:11;;;;;;;;;;;13.90;74.50;;;;;;4955426;28;20020;-90
2022/11/16 11:15:41;;;;;;;;;;;13.90;74.50;;;;;;4939846;29;19914;-89
2022/11/16 11:18:14;;;;;;;;;;;13.90;74.50;;;;;;4956268;28;19910;-88
2022/11/16 11:20:41;;;;;;;;;;;13.90;74.50;;;;;;4959427;28;19969;-89
2022/11/16 11:23:12;;;;;;;;;;;13.90;74.50;;;;;;4966619;28;20359;-89
2022/11/16 11:25:49;;;;;;;;;;;13.90;74.50;;;;;;4966606;28;19914;-89
2022/11/16 11:28:19;;;;;;;;;;;13.90;74.50;;;;;;4967767;28;19914;-87
2022/11/16 11:30:57;;;;;;;;;;;14.00;74.50;;;;;;4948548;29;19921;-87
2022/11/16 11:33:23;;;;;;;;;;;13.90;74.50;;;;;;4962150;28;20013;-86
2022/11/16 11:36:17;;;;;;;;;;;13.90;74.50;;;;;;4959208;28;19910;-88
2022/11/16 11:38:55;;;;;;;;;;;13.90;74.50;;;;;;4957724;28;19989;-87
2022/11/16 11:41:21;;;;;;;;;;;13.90;74.50;;;;;;4958946;29;19921;-88
2022/11/16 11:44:00;;;;;;;;;;;14.00;74.60;;;;;;4958565;29;19911;-88
2022/11/16 11:46:29;;;;;;;;;;;14.00;74.60;;;;;;4958640;28;20371;-87
2022/11/16 11:49:09;;;;;;;;;;;13.90;74.50;;;;;;4959070;28;20364;-86
2022/11/16 11:51:38;;;;;;;;;;;13.90;74.50;;;;;;4959571;28;19970;-86
2022/11/16 11:54:06;;;;;;;;;;;13.90;74.50;;;;;;4942474;28;20381;-88
2022/11/16 11:56:32;;;;;;;;;;;13.90;74.50;;;;;;4958333;29;19919;-87
2022/11/16 11:58:59;;;;;;;;;;;14.00;74.60;;;;;;4958200;28;19911;-87
2022/11/16 12:01:49;;;;;;;;;;;14.00;74.60;;;;;;4941772;29;19953;-84
2022/11/16 12:04:20;;;;;;;;;;;14.00;74.60;;;;;;4958999;28;19910;-89
2022/11/16 12:07:05;;;;;;;;;;;13.90;74.60;;;;;;4957868;29;19923;-86
2022/11/16 12:09:31;;;;;;;;;;;14.00;74.60;;;;;;4957467;29;19930;-85
2022/11/16 12:12:07;;;;;;;;;;;14.00;74.60;;;;;;4958138;29;19990;-86
2022/11/16 12:14:33;;;;;;;;;;;14.00;74.60;;;;;;4958943;28;20009;-88
2022/11/16 12:17:06;;;;;;;;;;;14.00;74.60;;;;;;4959505;28;19952;-88
2022/11/16 12:19:56;;;;;;;;;;;14.00;74.60;;;;;;4957948;29;20141;-87
2022/11/16 12:22:28;;;;;;;;;;;14.00;74.60;;;;;;4958162;28;19919;-85
2022/11/16 12:25:12;;;;;;;;;;;14.00;74.60;;;;;;4957695;28;19918;-88
2022/11/16 12:27:45;;;;;;;;;;;14.00;74.60;;;;;;4957571;28;19922;-85
2022/11/16 12:30:22;;;;;;;;;;;14.00;74.60;;;;;;4958230;28;19917;-85
2022/11/16 12:32:57;;;;;;;;;;;14.10;74.70;;;;;;4941274;29;19921;-88
2022/11/16 12:35:25;;;;;;;;;;;14.00;74.60;;;;;;4957939;28;19933;-85
2022/11/16 12:38:01;;;;;;;;;;;14.10;74.70;;;;;;4960620;29;20374;-86
2022/11/16 12:40:49;;;;;;;;;;;14.10;74.70;;;;;;4941792;29;19954;-85
2022/11/16 12:43:34;;;;;;;;;;;14.10;74.70;;;;;;4960328;29;19938;-85
2022/11/16 12:46:04;;;;;;;;;;;14.10;74.70;;;;;;4958804;28;19928;-87
2022/11/16 12:48:45;;;;;;;;;;;14.10;74.80;;;;;;4941741;29;20001;-86
2022/11/16 12:51:21;;;;;;;;;;;14.10;74.80;;;;;;4957375;29;19920;-87
2022/11/16 12:54:05;;;;;;;;;;;14.10;74.80;;;;;;4957315;29;19915;-86
2022/11/16 12:56:43;;;;;;;;;;;14.10;74.80;;;;;;4957425;29;19914;-86
2022/11/16 12:59:15;;;;;;;;;;;14.20;74.90;;;;;;4957391;28;19915;-85
2022/11/16 13:01:53;;;;;;;;;;;14.20;74.90;;;;;;4957185;29;19921;-85
2022/11/16 13:04:24;;;;;;;;;;;14.20;74.90;;;;;;4957656;28;20360;-86
2022/11/16 13:07:28;;;;;;;;;;;14.20;74.90;;;;;;4957202;28;19927;-86
2022/11/16 13:09:59;;;;;;;;;;;14.20;74.90;;;;;;4940199;29;19923;-86
2022/11/16 13:12:26;;;;;;;;;;;14.20;74.90;;;;;;4940540;29;19953;-87
2022/11/16 13:14:53;;;;;;;;;;;14.20;74.90;;;;;;4946712;29;19914;-86
2022/11/16 13:17:19;;;;;;;;;;;14.30;75.00;;;;;;4956911;29;19922;-85
2022/11/16 13:19:49;;;;;;;;;;;14.30;74.90;;;;;;4957306;28;19916;-85
2022/11/16 13:22:21;;;;;;;;;;;14.30;74.90;;;;;;4957230;28;19915;-86
2022/11/16 13:25:07;;;;;;;;;;;14.30;74.90;;;;;;4957210;29;19914;-89
2022/11/16 13:27:36;;;;;;;;;;;14.30;74.90;;;;;;4940161;29;19949;-87
2022/11/16 13:30:17;;;;;;;;;;;14.30;74.90;;;;;;4956575;29;19926;-86
2022/11/16 13:32:54;;;;;;;;;;;14.30;74.90;;;;;;4956693;28;19953;-86
2022/11/16 13:35:21;;;;;;;;;;;14.30;74.90;;;;;;4957385;28;19915;-89
2022/11/16 13:37:48;;;;;;;;;;;14.30;74.80;;;;;;4956552;28;19914;-86
2022/11/16 13:40:25;;;;;;;;;;;14.40;74.90;;;;;;4956451;29;19919;-85
2022/11/16 13:42:56;;;;;;;;;;;14.40;74.90;;;;;;4956543;28;19922;-86
2022/11/16 13:45:22;;;;;;;;;;;14.40;74.80;;;;;;4956575;29;20005;-86
2022/11/16 13:47:52;;;;;;;;;;;14.40;74.80;;;;;;4940544;29;19958;-86
2022/11/16 13:50:20;;;;;;;;;;;14.40;74.70;;;;;;4956366;29;19922;-86
2022/11/16 13:52:48;;;;;;;;;;;14.50;74.70;;;;;;4955935;28;19910;-86
2022/11/16 13:55:22;;;;;;;;;;;14.50;74.70;;;;;;4956032;28;19949;-88
2022/11/16 13:57:52;;;;;;;;;;;14.50;74.70;;;;;;4960104;29;19914;-85
2022/11/16 14:00:22;;;;;;;;;;;14.50;74.70;;;;;;4956169;29;19966;-85
2022/11/16 14:03:08;;;;;;;;;;;14.50;74.70;;;;;;4956313;28;20008;-85
2022/11/16 14:05:38;;;;;;;;;;;14.50;74.70;;;;;;4956273;28;19915;-86
2022/11/16 14:08:19;;;;;;;;;;;14.50;74.70;;;;;;4956987;28;19929;-86
2022/11/16 14:10:48;;;;;;;;;;;14.50;74.70;;;;;;4955524;29;19926;-85
2022/11/16 14:13:34;;;;;;;;;;;14.50;74.70;;;;;;4956467;29;19918;-85
2022/11/16 14:16:18;;;;;;;;;;;14.50;74.70;;;;;;4956591;29;19957;-86
2022/11/16 14:18:45;;;;;;;;;;;14.50;74.70;;;;;;4955749;29;19922;-85
2022/11/16 14:21:11;;;;;;;;;;;14.50;74.70;;;;;;4955712;28;19910;-86
2022/11/16 14:23:55;;;;;;;;;;;14.50;74.70;;;;;;4955679;28;20366;-84
2022/11/16 14:26:34;;;;;;;;;;;14.50;74.60;;;;;;4956040;28;20016;-85
2022/11/16 14:29:14;;;;;;;;;;;14.50;74.60;;;;;;4956008;28;19922;-86
2022/11/16 14:31:48;;;;;;;;;;;14.50;74.70;;;;;;4955335;28;19941;-86
2022/11/16 14:34:16;;;;;;;;;;;14.50;74.60;;;;;;4955414;29;20020;-86
2022/11/16 14:36:43;;;;;;;;;;;14.50;74.60;;;;;;4955662;28;19910;-85
2022/11/16 14:39:17;;;;;;;;;;;14.50;74.60;;;;;;4940074;29;19982;-86
2022/11/16 14:41:44;;;;;;;;;;;14.50;74.60;;;;;;4956437;28;19918;-84
2022/11/16 14:44:10;;;;;;;;;;;14.50;74.60;;;;;;4940134;29;19910;-87
2022/11/16 14:46:36;;;;;;;;;;;14.50;74.60;;;;;;4956133;28;19981;-85
2022/11/16 14:49:03;;;;;;;;;;;14.50;74.60;;;;;;4954826;28;19926;-85
2022/11/16 14:51:34;;;;;;;;;;;14.50;74.60;;;;;;4955954;29;19925;-86
2022/11/16 14:54:01;;;;;;;;;;;14.50;74.60;;;;;;4957339;28;19950;-86
2022/11/16 14:56:27;;;;;;;;;;;14.50;74.60;;;;;;4961468;28;19914;-85
2022/11/16 14:58:56;;;;;;;;;;;14.50;74.50;;;;;;4945577;29;19914;-86
2022/11/16 15:01:30;;;;;;;;;;;14.50;75.20;;;;;;4945334;29;19929;-86
2022/11/16 15:03:57;;;;;;;;;;;14.50;74.50;;;;;;4945750;29;19934;-87
2022/11/16 15:06:24;;;;;;;;;;;14.50;74.50;;;;;;4961538;28;20005;-85
2022/11/16 15:09:01;;;;;;;;;;;14.50;74.50;;;;;;4961737;28;20025;-85
2022/11/16 15:12:40;;;;;;;;;;;14.50;74.50;;;;;;4961070;28;19962;-87
2022/11/16 15:14:25;;;;;;;;;;;14.50;74.50;;;;;;4961645;28;19921;-85